Time;durP1;ratioP1;P1;durP2;ratioP2;P2;SDS_P1;SDS_P2;PMS_P1;PMS_P2;Temp;Humidity;BMP_temperature;BMP_pressure;BME280_temperature;BME280_humidity;BME280_pressure;Samples;Min_cycle;Max_cycle;Signal;HPM_P1;HPM_P2
2022/06/18 00:01:43;;;;;;;9.85;8.00;;;;;;;;;;4405027;32;20393;-56
2022/06/18 00:04:10;;;;;;;13.30;7.45;;;;;;;;;;4404883;32;20233;-56
2022/06/18 00:06:44;;;;;;;14.90;6.37;;;;;;;;;;4405020;32;20665;-55
2022/06/18 00:09:12;;;;;;;10.07;6.28;;;;;;;;;;4404503;32;20218;-56
2022/06/18 00:14:22;;;;;;;12.52;6.07;;;;;;;;;;4404127;32;20254;-56
2022/06/18 00:16:48;;;;;;;11.73;6.70;;;;;;;;;;4402743;32;20650;-55
2022/06/18 00:19:13;;;;;;;7.47;6.12;;;;;;;;;;4388382;32;20324;-56
2022/06/18 00:21:39;;;;;;;7.90;6.53;;;;;;;;;;4397181;32;20251;-56
2022/06/18 00:24:20;;;;;;;9.00;5.20;;;;;;;;;;4404282;32;20363;-56
2022/06/18 00:26:46;;;;;;;6.20;5.60;;;;;;;;;;4391191;32;20327;-56
2022/06/18 00:29:14;;;;;;;9.30;6.03;;;;;;;;;;4389069;32;20376;-56
2022/06/18 00:31:39;;;;;;;7.40;5.60;;;;;;;;;;4389529;32;20198;-56
2022/06/18 00:34:05;;;;;;;6.20;5.55;;;;;;;;;;4388961;32;20484;-56
2022/06/18 00:36:31;;;;;;;10.55;5.85;;;;;;;;;;4391452;32;20230;-56
2022/06/18 00:38:57;;;;;;;9.35;5.62;;;;;;;;;;4404402;32;20638;-57
2022/06/18 00:41:25;;;;;;;8.90;5.15;;;;;;;;;;4377352;32;20315;-57
2022/06/18 00:43:58;;;;;;;5.93;5.32;;;;;;;;;;4389381;32;20280;-57
2022/06/18 00:46:51;;;;;;;5.95;5.35;;;;;;;;;;4375455;32;20383;-57
2022/06/18 00:49:29;;;;;;;5.82;5.28;;;;;;;;;;4389765;32;20289;-57
2022/06/18 00:52:22;;;;;;;7.82;5.10;;;;;;;;;;4389036;32;20337;-57
2022/06/18 00:54:57;;;;;;;18.00;7.28;;;;;;;;;;4389479;32;20292;-57
2022/06/18 00:57:32;;;;;;;5.97;5.25;;;;;;;;;;4389218;32;20197;-56
2022/06/18 01:00:06;;;;;;;8.40;5.95;;;;;;;;;;4389260;32;20751;-57
2022/06/18 01:02:39;;;;;;;14.35;4.95;;;;;;;;;;4389297;32;20185;-57
2022/06/18 01:05:21;;;;;;;6.28;4.87;;;;;;;;;;4389255;32;20213;-57
2022/06/18 01:07:54;;;;;;;10.25;5.40;;;;;;;;;;4388896;32;20261;-57
2022/06/18 01:10:43;;;;;;;6.28;5.22;;;;;;;;;;4387787;32;20229;-57
2022/06/18 01:13:13;;;;;;;9.55;5.35;;;;;;;;;;4388622;32;20447;-57
2022/06/18 01:15:40;;;;;;;7.47;4.72;;;;;;;;;;4389051;32;20209;-57
2022/06/18 01:18:06;;;;;;;6.40;4.87;;;;;;;;;;4374901;32;20457;-57
2022/06/18 01:20:38;;;;;;;7.15;4.90;;;;;;;;;;4388804;32;20214;-57
2022/06/18 01:23:21;;;;;;;13.15;5.22;;;;;;;;;;4387328;32;20319;-56
2022/06/18 01:25:47;;;;;;;6.20;4.55;;;;;;;;;;4397138;32;20278;-56
2022/06/18 01:28:16;;;;;;;9.10;4.60;;;;;;;;;;4403935;32;20225;-56
2022/06/18 01:30:43;;;;;;;10.07;5.05;;;;;;;;;;4402598;32;20225;-56
2022/06/18 01:33:10;;;;;;;7.62;4.68;;;;;;;;;;4404033;32;20256;-56
2022/06/18 01:35:40;;;;;;;5.78;4.00;;;;;;;;;;4404054;32;20514;-56
2022/06/18 01:38:05;;;;;;;6.70;4.53;;;;;;;;;;4403609;32;20233;-56
2022/06/18 01:40:49;;;;;;;15.02;5.20;;;;;;;;;;4395913;32;20252;-56
2022/06/18 01:43:18;;;;;;;3.97;3.58;;;;;;;;;;4388949;32;20222;-56
2022/06/18 01:45:46;;;;;;;6.93;4.50;;;;;;;;;;4388862;32;20327;-59
2022/06/18 01:48:24;;;;;;;6.37;3.85;;;;;;;;;;4388697;32;20233;-56
2022/06/18 01:50:54;;;;;;;9.88;4.53;;;;;;;;;;4389063;32;20202;-56
2022/06/18 01:53:31;;;;;;;8.57;3.80;;;;;;;;;;4388852;32;20639;-57
2022/06/18 01:56:01;;;;;;;6.85;4.03;;;;;;;;;;4389108;32;20201;-57
2022/06/18 01:58:46;;;;;;;5.50;4.22;;;;;;;;;;4388817;32;20312;-57
2022/06/18 02:01:18;;;;;;;8.63;3.97;;;;;;;;;;4389005;32;20194;-57
2022/06/18 02:03:44;;;;;;;8.73;4.25;;;;;;;;;;4387481;32;20741;-57
2022/06/18 02:06:10;;;;;;;7.50;3.75;;;;;;;;;;4387894;32;20228;-57
2022/06/18 02:08:37;;;;;;;4.25;3.72;;;;;;;;;;4388504;32;20295;-56
2022/06/18 02:11:05;;;;;;;4.37;3.08;;;;;;;;;;4391237;32;20236;-58
2022/06/18 02:13:38;;;;;;;6.53;3.22;;;;;;;;;;4403681;32;20256;-57
2022/06/18 02:16:09;;;;;;;6.80;3.10;;;;;;;;;;4403545;32;20335;-57
2022/06/18 02:18:36;;;;;;;4.12;3.50;;;;;;;;;;4403482;32;20687;-57
2022/06/18 02:21:07;;;;;;;5.47;3.10;;;;;;;;;;4403089;32;20268;-57
2022/06/18 02:23:33;;;;;;;5.70;2.95;;;;;;;;;;4403438;32;20218;-57
2022/06/18 02:25:59;;;;;;;5.62;2.87;;;;;;;;;;4403131;32;20221;-57
2022/06/18 02:28:32;;;;;;;11.10;3.50;;;;;;;;;;4389794;32;20665;-57
2022/06/18 02:31:01;;;;;;;3.80;3.40;;;;;;;;;;4403419;32;20205;-57
2022/06/18 02:33:49;;;;;;;5.60;2.70;;;;;;;;;;4389602;32;20300;-57
2022/06/18 02:36:19;;;;;;;4.53;2.80;;;;;;;;;;4402823;32;20202;-57
2022/06/18 02:38:46;;;;;;;9.32;3.60;;;;;;;;;;4399353;32;20260;-57
2022/06/18 02:41:12;;;;;;;6.50;2.78;;;;;;;;;;4400298;32;20507;-57
2022/06/18 02:43:40;;;;;;;3.47;2.90;;;;;;;;;;4403373;32;20280;-57
2022/06/18 02:46:05;;;;;;;6.03;3.15;;;;;;;;;;4402961;32;20743;-57
2022/06/18 02:48:33;;;;;;;3.60;2.80;;;;;;;;;;4403062;32;20292;-57
2022/06/18 02:51:00;;;;;;;5.43;3.37;;;;;;;;;;4402732;32;20763;-57
2022/06/18 02:53:27;;;;;;;10.45;3.10;;;;;;;;;;4403199;32;20275;-57
2022/06/18 02:55:56;;;;;;;5.80;3.30;;;;;;;;;;4403473;32;20586;-57
2022/06/18 02:58:23;;;;;;;7.35;3.55;;;;;;;;;;4403385;32;20248;-57
2022/06/18 03:01:04;;;;;;;4.97;2.83;;;;;;;;;;4402825;32;20275;-56
2022/06/18 03:03:33;;;;;;;4.03;2.67;;;;;;;;;;4403267;32;20255;-57
2022/06/18 03:05:59;;;;;;;5.20;2.87;;;;;;;;;;4402568;32;20653;-56
2022/06/18 03:08:27;;;;;;;7.78;2.97;;;;;;;;;;4402634;32;20256;-56
2022/06/18 03:13:38;;;;;;;3.62;3.30;;;;;;;;;;4387898;32;20577;-57
2022/06/18 03:16:05;;;;;;;4.07;2.65;;;;;;;;;;4387599;32;20372;-57
2022/06/18 03:18:32;;;;;;;10.43;3.08;;;;;;;;;;4396513;32;20933;-64
2022/06/18 03:21:04;;;;;;;3.95;2.83;;;;;;;;;;4402858;32;20638;-57
2022/06/18 03:23:31;;;;;;;3.47;2.55;;;;;;;;;;4389272;32;20241;-57
2022/06/18 03:25:56;;;;;;;3.45;2.62;;;;;;;;;;4400029;32;20275;-57
2022/06/18 03:28:23;;;;;;;10.63;3.53;;;;;;;;;;4402708;32;20230;-57
2022/06/18 03:30:49;;;;;;;7.05;2.53;;;;;;;;;;4401296;32;20665;-57
2022/06/18 03:33:14;;;;;;;4.62;3.08;;;;;;;;;;4402627;32;20214;-57
2022/06/18 03:35:45;;;;;;;4.12;2.70;;;;;;;;;;4388664;32;20693;-57
2022/06/18 03:38:13;;;;;;;3.50;3.15;;;;;;;;;;4403278;32;20263;-57
2022/06/18 03:40:39;;;;;;;4.37;3.00;;;;;;;;;;4401915;32;20630;-57
2022/06/18 03:43:05;;;;;;;5.07;3.35;;;;;;;;;;4389067;32;20206;-57
2022/06/18 03:45:37;;;;;;;5.90;2.67;;;;;;;;;;4402915;32;20229;-57
2022/06/18 03:48:04;;;;;;;3.35;2.67;;;;;;;;;;4402998;32;20197;-56
2022/06/18 03:50:29;;;;;;;7.05;3.90;;;;;;;;;;4404450;32;20712;-57
2022/06/18 03:52:55;;;;;;;5.45;2.55;;;;;;;;;;4404835;32;20202;-56
2022/06/18 03:55:21;;;;;;;8.52;2.95;;;;;;;;;;4405211;32;20677;-56
2022/06/18 03:57:46;;;;;;;8.93;6.75;;;;;;;;;;4405183;32;20205;-57
2022/06/18 04:00:21;;;;;;;8.30;6.60;;;;;;;;;;4404787;32;20224;-57
2022/06/18 04:02:47;;;;;;;8.05;4.72;;;;;;;;;;4404855;32;20406;-56
2022/06/18 04:05:13;;;;;;;7.65;3.60;;;;;;;;;;4404960;32;20223;-56
2022/06/18 04:07:40;;;;;;;6.90;3.20;;;;;;;;;;4404835;32;20225;-57
2022/06/18 04:10:06;;;;;;;8.02;4.03;;;;;;;;;;4404629;32;20332;-56
2022/06/18 04:12:32;;;;;;;3.55;3.15;;;;;;;;;;4404708;32;20523;-56
2022/06/18 04:14:58;;;;;;;6.72;3.45;;;;;;;;;;4404779;32;20289;-56
2022/06/18 04:17:23;;;;;;;10.98;3.70;;;;;;;;;;4404866;32;20288;-56
2022/06/18 04:19:50;;;;;;;5.00;3.50;;;;;;;;;;4404953;32;20287;-56
2022/06/18 04:22:16;;;;;;;8.18;3.65;;;;;;;;;;4404591;32;20250;-56
2022/06/18 04:24:41;;;;;;;8.88;3.55;;;;;;;;;;4390717;32;20236;-56
2022/06/18 04:27:07;;;;;;;6.82;4.62;;;;;;;;;;4403214;32;20599;-56
2022/06/18 04:29:34;;;;;;;10.15;3.65;;;;;;;;;;4390906;32;20711;-56
2022/06/18 04:31:59;;;;;;;5.25;3.60;;;;;;;;;;4404675;32;20300;-56
2022/06/18 04:34:28;;;;;;;6.57;3.47;;;;;;;;;;4404439;32;20632;-56
2022/06/18 04:36:53;;;;;;;9.45;3.70;;;;;;;;;;4397746;32;20315;-56
2022/06/18 04:39:19;;;;;;;5.00;3.83;;;;;;;;;;4389759;32;20225;-56
2022/06/18 04:41:45;;;;;;;4.72;3.45;;;;;;;;;;4404602;32;20273;-56
2022/06/18 04:44:11;;;;;;;5.37;3.75;;;;;;;;;;4404361;32;20247;-56
2022/06/18 04:46:36;;;;;;;10.45;3.72;;;;;;;;;;4404683;32;20197;-56
2022/06/18 04:49:02;;;;;;;10.63;3.80;;;;;;;;;;4404170;32;20264;-56
2022/06/18 04:51:27;;;;;;;6.20;3.83;;;;;;;;;;4403937;32;20600;-56
2022/06/18 04:53:53;;;;;;;13.18;3.72;;;;;;;;;;4390917;32;20292;-56
2022/06/18 04:56:18;;;;;;;4.60;3.28;;;;;;;;;;4404119;32;20621;-56
2022/06/18 04:58:44;;;;;;;7.37;3.83;;;;;;;;;;4404558;32;20213;-55
2022/06/18 05:01:16;;;;;;;6.97;3.92;;;;;;;;;;4403690;32;20270;-56
2022/06/18 05:03:41;;;;;;;8.80;4.37;;;;;;;;;;4390936;32;20684;-56
2022/06/18 05:06:07;;;;;;;6.95;3.33;;;;;;;;;;4403965;32;20218;-56
2022/06/18 05:08:32;;;;;;;3.67;2.72;;;;;;;;;;4404487;32;20218;-56
2022/06/18 05:10:58;;;;;;;5.40;2.95;;;;;;;;;;4403781;32;20202;-56
2022/06/18 05:13:23;;;;;;;10.73;3.10;;;;;;;;;;4404062;32;20307;-55
2022/06/18 05:15:52;;;;;;;10.52;3.55;;;;;;;;;;4403827;32;20589;-55
2022/06/18 05:18:18;;;;;;;5.53;3.95;;;;;;;;;;4403877;32;20234;-55
2022/06/18 05:20:49;;;;;;;4.47;2.47;;;;;;;;;;4403562;32;20305;-56
2022/06/18 05:23:14;;;;;;;4.68;3.00;;;;;;;;;;4403867;32;20213;-56
2022/06/18 05:25:41;;;;;;;4.37;3.37;;;;;;;;;;4403589;32;20236;-55
2022/06/18 05:28:09;;;;;;;5.93;2.83;;;;;;;;;;4389634;32;20336;-55
2022/06/18 05:30:34;;;;;;;3.37;3.08;;;;;;;;;;4402450;32;20243;-55
2022/06/18 05:33:00;;;;;;;3.55;2.85;;;;;;;;;;4403706;32;20193;-55
2022/06/18 05:35:25;;;;;;;3.92;2.72;;;;;;;;;;4403637;32;20201;-55
2022/06/18 05:37:51;;;;;;;3.50;2.75;;;;;;;;;;4391127;32;20557;-55
2022/06/18 05:40:18;;;;;;;4.75;3.03;;;;;;;;;;4394559;32;20201;-56
2022/06/18 05:42:43;;;;;;;7.15;3.10;;;;;;;;;;4403539;32;20313;-56
2022/06/18 05:45:09;;;;;;;4.68;2.42;;;;;;;;;;4403071;32;20206;-55
2022/06/18 05:47:35;;;;;;;6.50;2.50;;;;;;;;;;4403621;32;20281;-55
2022/06/18 05:50:02;;;;;;;3.30;2.80;;;;;;;;;;4403127;32;20317;-55
2022/06/18 05:52:29;;;;;;;3.12;2.53;;;;;;;;;;4403519;32;20251;-56
2022/06/18 05:54:55;;;;;;;3.37;2.62;;;;;;;;;;4403536;32;20221;-56
2022/06/18 05:57:21;;;;;;;3.22;2.58;;;;;;;;;;4403189;32;20214;-56
2022/06/18 05:59:47;;;;;;;3.90;2.90;;;;;;;;;;4389699;32;20327;-57
2022/06/18 06:02:14;;;;;;;7.72;3.25;;;;;;;;;;4403277;32;20284;-56
2022/06/18 06:04:42;;;;;;;3.90;1.92;;;;;;;;;;4403146;32;20314;-57
2022/06/18 06:07:22;;;;;;;9.48;3.33;;;;;;;;;;4401407;32;20618;-57
2022/06/18 06:12:34;;;;;;;7.18;2.85;;;;;;;;;;4401209;32;20417;-56
2022/06/18 06:15:00;;;;;;;4.07;2.45;;;;;;;;;;4401890;32;20225;-56
2022/06/18 06:17:27;;;;;;;7.45;2.75;;;;;;;;;;4400855;32;20217;-56
2022/06/18 06:20:00;;;;;;;5.60;2.67;;;;;;;;;;4402150;32;20718;-56
2022/06/18 06:22:26;;;;;;;4.35;3.05;;;;;;;;;;4402641;32;20253;-56
2022/06/18 06:24:52;;;;;;;26.00;5.43;;;;;;;;;;4397385;32;20698;-57
2022/06/18 06:27:18;;;;;;;4.22;3.30;;;;;;;;;;4402564;32;20292;-56
2022/06/18 06:29:43;;;;;;;2.92;2.40;;;;;;;;;;4402430;32;20381;-56
2022/06/18 06:32:08;;;;;;;4.53;2.78;;;;;;;;;;4402547;32;20205;-56
2022/06/18 06:34:34;;;;;;;5.22;2.40;;;;;;;;;;4402820;32;20625;-56
2022/06/18 06:36:59;;;;;;;3.75;2.35;;;;;;;;;;4395530;32;20583;-56
2022/06/18 06:39:25;;;;;;;5.15;3.40;;;;;;;;;;4388557;32;20406;-56
2022/06/18 06:41:50;;;;;;;2.47;2.10;;;;;;;;;;4403299;32;20248;-56
2022/06/18 06:44:16;;;;;;;6.43;2.28;;;;;;;;;;4402727;32;20218;-56
2022/06/18 06:46:41;;;;;;;4.85;2.33;;;;;;;;;;4402497;32;20252;-56
2022/06/18 06:49:07;;;;;;;3.22;2.55;;;;;;;;;;4402636;32;20309;-56
2022/06/18 06:51:35;;;;;;;6.25;2.80;;;;;;;;;;4402063;32;20250;-57
2022/06/18 06:54:01;;;;;;;6.62;3.15;;;;;;;;;;4402576;32;20218;-57
2022/06/18 06:59:11;;;;;;;2.65;2.00;;;;;;;;;;4402520;32;20722;-57
2022/06/18 07:01:37;;;;;;;2.90;2.33;;;;;;;;;;4402195;32;20288;-57
2022/06/18 07:04:09;;;;;;;7.35;2.87;;;;;;;;;;4401983;32;20221;-56
2022/06/18 07:06:35;;;;;;;2.92;2.33;;;;;;;;;;4401489;32;20602;-56
2022/06/18 07:09:03;;;;;;;2.95;2.12;;;;;;;;;;4401333;32;20218;-56
2022/06/18 07:11:28;;;;;;;3.55;2.22;;;;;;;;;;4402023;32;20221;-57
2022/06/18 07:13:54;;;;;;;4.03;2.65;;;;;;;;;;4402086;32;20252;-57
2022/06/18 07:16:19;;;;;;;8.05;2.72;;;;;;;;;;4402151;32;20602;-57
2022/06/18 07:18:45;;;;;;;3.28;1.90;;;;;;;;;;4402338;32;20278;-57
2022/06/18 07:21:13;;;;;;;8.85;2.62;;;;;;;;;;4401899;32;20631;-57
2022/06/18 07:23:39;;;;;;;3.78;2.55;;;;;;;;;;4403251;32;20256;-57
2022/06/18 07:26:05;;;;;;;2.58;1.95;;;;;;;;;;4404765;32;20307;-57
2022/06/18 07:28:31;;;;;;;6.35;2.50;;;;;;;;;;4404833;32;20268;-56
2022/06/18 07:30:56;;;;;;;4.25;2.45;;;;;;;;;;4404745;32;20492;-56
2022/06/18 07:33:24;;;;;;;7.25;2.45;;;;;;;;;;4405171;32;20267;-56
2022/06/18 07:35:50;;;;;;;4.00;2.62;;;;;;;;;;4404959;32;20776;-56
2022/06/18 07:38:16;;;;;;;4.50;2.72;;;;;;;;;;4389863;32;20241;-56
2022/06/18 07:40:46;;;;;;;3.40;2.20;;;;;;;;;;4397777;32;20607;-56
2022/06/18 07:43:23;;;;;;;4.35;2.50;;;;;;;;;;4404882;32;20235;-57
2022/06/18 07:45:48;;;;;;;3.20;2.33;;;;;;;;;;4404921;32;20268;-56
2022/06/18 07:48:14;;;;;;;3.75;2.35;;;;;;;;;;4404783;32;20221;-56
2022/06/18 07:50:45;;;;;;;4.37;2.40;;;;;;;;;;4404925;32;20232;-57
2022/06/18 07:53:17;;;;;;;5.03;2.90;;;;;;;;;;4404635;32;20283;-57
2022/06/18 07:55:42;;;;;;;5.75;3.00;;;;;;;;;;4404850;32;20276;-57
2022/06/18 07:58:08;;;;;;;6.43;2.80;;;;;;;;;;4404506;32;20213;-56
2022/06/18 08:00:35;;;;;;;4.35;3.15;;;;;;;;;;4404479;32;20707;-56
2022/06/18 08:03:01;;;;;;;3.42;2.58;;;;;;;;;;4404492;32;20302;-56
2022/06/18 08:05:27;;;;;;;3.85;2.85;;;;;;;;;;4404124;32;20194;-55
2022/06/18 08:07:53;;;;;;;6.93;2.62;;;;;;;;;;4403662;32;20252;-55
2022/06/18 08:10:19;;;;;;;4.93;3.08;;;;;;;;;;4404450;32;20525;-56
2022/06/18 08:12:45;;;;;;;3.55;2.72;;;;;;;;;;4403829;32;20248;-56
2022/06/18 08:15:11;;;;;;;3.72;2.80;;;;;;;;;;4404493;32;20233;-56
2022/06/18 08:17:36;;;;;;;3.10;2.80;;;;;;;;;;4390153;32;20300;-56
2022/06/18 08:20:04;;;;;;;3.80;2.78;;;;;;;;;;4388887;32;20213;-56
2022/06/18 08:22:30;;;;;;;2.92;2.62;;;;;;;;;;4388798;32;20273;-57
2022/06/18 08:24:56;;;;;;;4.75;2.75;;;;;;;;;;4378516;32;20672;-56
2022/06/18 08:27:22;;;;;;;3.90;3.12;;;;;;;;;;4402576;32;20635;-57
2022/06/18 08:29:49;;;;;;;2.85;2.55;;;;;;;;;;4403608;32;20272;-57
2022/06/18 08:32:14;;;;;;;4.53;2.55;;;;;;;;;;4404169;32;20288;-56
2022/06/18 08:34:40;;;;;;;4.37;2.62;;;;;;;;;;4403216;32;20347;-57
2022/06/18 08:37:07;;;;;;;4.60;2.65;;;;;;;;;;4396421;32;20259;-57
2022/06/18 08:39:33;;;;;;;9.13;3.10;;;;;;;;;;4390736;32;20316;-56
2022/06/18 08:42:17;;;;;;;4.78;3.20;;;;;;;;;;4403910;32;20565;-56
2022/06/18 08:45:01;;;;;;;3.25;2.67;;;;;;;;;;4404374;32;20254;-56
2022/06/18 08:47:43;;;;;;;9.73;3.03;;;;;;;;;;4404035;32;20706;-57
2022/06/18 08:50:27;;;;;;;3.90;2.67;;;;;;;;;;4403682;32;20438;-56
2022/06/18 08:53:14;;;;;;;3.62;2.30;;;;;;;;;;4403892;32;20255;-56
2022/06/18 08:56:01;;;;;;;10.63;2.47;;;;;;;;;;4403742;32;20221;-56
2022/06/18 08:58:30;;;;;;;4.45;2.37;;;;;;;;;;4403877;32;20364;-57
2022/06/18 09:01:03;;;;;;;3.97;2.58;;;;;;;;;;4403758;32;20209;-57
2022/06/18 09:04:01;;;;;;;2.53;2.00;;;;;;;;;;4403382;32;20308;-57
2022/06/18 09:06:49;;;;;;;4.22;2.62;;;;;;;;;;4403572;32;20225;-56
2022/06/18 09:09:33;;;;;;;6.93;2.12;;;;;;;;;;4403708;32;20248;-56
2022/06/18 09:12:10;;;;;;;8.00;3.05;;;;;;;;;;4403648;32;20208;-56
2022/06/18 09:14:44;;;;;;;4.47;2.40;;;;;;;;;;4403846;32;20599;-57
2022/06/18 09:17:29;;;;;;;3.87;2.85;;;;;;;;;;4392117;32;20671;-56
2022/06/18 09:20:07;;;;;;;4.00;2.20;;;;;;;;;;4388230;32;20234;-57
2022/06/18 09:22:37;;;;;;;3.58;2.08;;;;;;;;;;4388315;32;20213;-57
2022/06/18 09:25:12;;;;;;;2.90;1.98;;;;;;;;;;4392604;32;20267;-57
2022/06/18 09:27:47;;;;;;;3.90;2.03;;;;;;;;;;4403513;32;20666;-57
2022/06/18 09:30:20;;;;;;;6.37;2.60;;;;;;;;;;4403795;32;20584;-57
2022/06/18 09:33:03;;;;;;;3.60;2.50;;;;;;;;;;4403208;32;20213;-57
2022/06/18 09:35:40;;;;;;;3.30;2.03;;;;;;;;;;4403419;32;20617;-56
2022/06/18 09:38:18;;;;;;;2.60;2.28;;;;;;;;;;4386806;32;20332;-56
2022/06/18 09:40:49;;;;;;;3.15;2.20;;;;;;;;;;4397178;32;20260;-57
2022/06/18 09:43:26;;;;;;;2.67;2.05;;;;;;;;;;4403250;32;20220;-56
2022/06/18 09:45:56;;;;;;;6.40;2.90;;;;;;;;;;4402988;32;20221;-56
2022/06/18 09:48:22;;;;;;;3.35;2.20;;;;;;;;;;4403686;32;20273;-57
2022/06/18 09:50:57;;;;;;;5.60;2.45;;;;;;;;;;4402595;32;20217;-57
2022/06/18 09:53:30;;;;;;;3.03;1.83;;;;;;;;;;4403195;32;20518;-57
2022/06/18 09:56:01;;;;;;;2.87;2.00;;;;;;;;;;4403023;32;20514;-57
2022/06/18 09:58:32;;;;;;;2.50;2.12;;;;;;;;;;4403448;32;20281;-57
2022/06/18 10:01:00;;;;;;;5.10;2.53;;;;;;;;;;4403374;32;20602;-57
2022/06/18 10:09:05;;;;;;;4.87;2.60;;;;;;;;;;4402880;32;20566;-57
2022/06/18 10:11:31;;;;;;;4.03;2.30;;;;;;;;;;4402781;32;20205;-56
2022/06/18 10:14:19;;;;;;;5.35;2.97;;;;;;;;;;4403035;32;20229;-57
2022/06/18 10:16:59;;;;;;;5.80;2.55;;;;;;;;;;4392636;32;20693;-56
2022/06/18 10:19:38;;;;;;;6.37;2.25;;;;;;;;;;4387688;32;20217;-57
2022/06/18 10:22:13;;;;;;;4.15;2.37;;;;;;;;;;4387945;32;20376;-56
2022/06/18 10:25:09;;;;;;;3.00;2.30;;;;;;;;;;4389045;32;20248;-57
2022/06/18 10:28:21;;;;;;;4.30;2.28;;;;;;;;;;4402817;32;20205;-56
2022/06/18 10:31:13;;;;;;;2.47;2.03;;;;;;;;;;4325729;33;20235;-56
2022/06/18 10:34:06;;;;;;;3.22;2.12;;;;;;;;;;4325756;33;20251;-56
2022/06/18 10:36:52;;;;;;;6.70;1.80;;;;;;;;;;4383358;32;20217;-56
2022/06/18 10:39:30;;;;;;;4.07;2.17;;;;;;;;;;4402293;32;20283;-56
2022/06/18 10:42:25;;;;;;;2.80;1.90;;;;;;;;;;4387265;32;20363;-56
2022/06/18 10:44:57;;;;;;;4.68;2.40;;;;;;;;;;4387314;32;20237;-56
2022/06/18 10:47:31;;;;;;;3.45;2.35;;;;;;;;;;4389838;32;20229;-56
2022/06/18 10:50:02;;;;;;;4.68;2.60;;;;;;;;;;4402196;32;20582;-56
2022/06/18 10:52:28;;;;;;;5.43;2.40;;;;;;;;;;4401960;32;20253;-56
2022/06/18 10:55:14;;;;;;;5.90;2.62;;;;;;;;;;4402165;32;20316;-56
2022/06/18 10:57:39;;;;;;;3.72;2.65;;;;;;;;;;4402756;32;20197;-57
2022/06/18 11:00:28;;;;;;;5.78;2.62;;;;;;;;;;4406714;32;20238;-56
2022/06/18 11:02:57;;;;;;;4.25;2.45;;;;;;;;;;4407309;32;20218;-56
2022/06/18 11:05:30;;;;;;;2.80;2.00;;;;;;;;;;4407197;32;20189;-57
2022/06/18 11:08:00;;;;;;;4.97;2.15;;;;;;;;;;4406978;32;20217;-57
2022/06/18 11:10:37;;;;;;;4.32;2.50;;;;;;;;;;4406918;32;20624;-57
2022/06/18 11:13:05;;;;;;;7.32;2.58;;;;;;;;;;4406984;32;20289;-57
2022/06/18 11:15:37;;;;;;;3.45;2.22;;;;;;;;;;4406999;32;20257;-57
2022/06/18 11:18:18;;;;;;;14.68;2.42;;;;;;;;;;4406832;32;20201;-57
2022/06/18 11:21:01;;;;;;;10.85;2.72;;;;;;;;;;4407514;32;20237;-57
2022/06/18 11:23:27;;;;;;;2.40;2.03;;;;;;;;;;4407036;32;20337;-57
2022/06/18 11:25:56;;;;;;;6.62;1.83;;;;;;;;;;4406761;32;20678;-57
2022/06/18 11:28:39;;;;;;;3.58;1.48;;;;;;;;;;4407130;32;20247;-57
2022/06/18 11:31:06;;;;;;;2.97;2.20;;;;;;;;;;4407031;32;20331;-57
2022/06/18 11:33:50;;;;;;;1.70;1.23;;;;;;;;;;4406539;32;20277;-57
2022/06/18 11:36:18;;;;;;;2.25;1.77;;;;;;;;;;4404581;32;20850;-57
2022/06/18 11:38:53;;;;;;;3.12;1.83;;;;;;;;;;4391946;32;20304;-57
2022/06/18 11:41:42;;;;;;;10.70;1.98;;;;;;;;;;4388309;32;20251;-57
2022/06/18 11:44:29;;;;;;;6.18;2.10;;;;;;;;;;4397622;32;20340;-58
2022/06/18 11:47:04;;;;;;;1.85;1.58;;;;;;;;;;4407023;32;20194;-57
2022/06/18 11:49:57;;;;;;;3.05;1.55;;;;;;;;;;4406658;32;20216;-57
2022/06/18 11:52:44;;;;;;;1.75;1.37;;;;;;;;;;4407084;32;20209;-56
2022/06/18 11:55:23;;;;;;;1.73;1.45;;;;;;;;;;4406906;32;20253;-56
2022/06/18 11:58:17;;;;;;;1.17;1.08;;;;;;;;;;4406951;32;20298;-58
2022/06/18 12:00:58;;;;;;;5.93;1.65;;;;;;;;;;4391744;32;20190;-58
2022/06/18 12:03:33;;;;;;;3.22;1.87;;;;;;;;;;4391664;32;20226;-58
2022/06/18 12:06:13;;;;;;;2.17;1.52;;;;;;;;;;4391692;32;20304;-58
2022/06/18 12:08:40;;;;;;;5.75;2.08;;;;;;;;;;4392100;32;20665;-58
2022/06/18 12:11:40;;;;;;;2.28;2.08;;;;;;;;;;4389482;32;20775;-58
2022/06/18 12:14:09;;;;;;;4.95;2.45;;;;;;;;;;4389482;32;20213;-57
2022/06/18 12:16:47;;;;;;;3.75;1.98;;;;;;;;;;4389460;32;20278;-57
2022/06/18 12:19:23;;;;;;;3.60;2.83;;;;;;;;;;4387991;32;20222;-57
2022/06/18 12:21:55;;;;;;;3.00;2.00;;;;;;;;;;4389065;32;20266;-57
2022/06/18 12:24:50;;;;;;;3.28;2.05;;;;;;;;;;4389494;32;20252;-57
2022/06/18 12:27:23;;;;;;;2.90;2.05;;;;;;;;;;4389405;32;20214;-57
2022/06/18 12:29:58;;;;;;;3.58;2.62;;;;;;;;;;4402718;32;20243;-57
2022/06/18 12:32:48;;;;;;;4.30;2.50;;;;;;;;;;4404471;32;20306;-57
2022/06/18 12:35:29;;;;;;;7.68;2.70;;;;;;;;;;4390453;32;20374;-57
2022/06/18 12:38:14;;;;;;;3.00;2.20;;;;;;;;;;4391206;32;20226;-57
2022/06/18 12:41:00;;;;;;;8.88;2.62;;;;;;;;;;4397739;32;20228;-57
2022/06/18 12:43:44;;;;;;;3.10;2.33;;;;;;;;;;4390729;32;20358;-57
2022/06/18 12:46:36;;;;;;;3.92;2.60;;;;;;;;;;4404188;32;20291;-56
2022/06/18 12:49:09;;;;;;;6.32;2.20;;;;;;;;;;4382699;32;20226;-56
2022/06/18 12:52:30;;;;;;;4.57;2.40;;;;;;;;;;4404251;32;20201;-56
2022/06/18 12:55:30;;;;;;;4.47;2.30;;;;;;;;;;4357339;32;20280;-56
2022/06/18 12:58:05;;;;;;;4.12;2.53;;;;;;;;;;4341053;32;20211;-55
2022/06/18 13:00:42;;;;;;;2.95;2.65;;;;;;;;;;4398417;32;20387;-57
2022/06/18 13:03:52;;;;;;;5.12;2.37;;;;;;;;;;4403892;32;20217;-58
2022/06/18 13:06:33;;;;;;;3.28;1.85;;;;;;;;;;4356747;32;20292;-57
2022/06/18 13:09:18;;;;;;;5.57;2.20;;;;;;;;;;4402023;32;20217;-57
2022/06/18 13:11:47;;;;;;;6.65;2.22;;;;;;;;;;4404154;32;20322;-57
2022/06/18 13:14:22;;;;;;;6.78;2.00;;;;;;;;;;4404238;32;20229;-56
2022/06/18 13:17:04;;;;;;;6.50;2.65;;;;;;;;;;4403908;32;20279;-55
2022/06/18 13:19:53;;;;;;;3.92;2.28;;;;;;;;;;4403712;32;20222;-56
2022/06/18 13:22:19;;;;;;;6.40;2.30;;;;;;;;;;4403509;32;20205;-57
2022/06/18 13:30:40;;;;;;;4.90;2.33;;;;;;;;;;4388552;32;20281;-56
2022/06/18 13:33:10;;;;;;;4.40;1.90;;;;;;;;;;4388105;32;20341;-57
2022/06/18 13:36:01;;;;;;;2.47;2.10;;;;;;;;;;4388406;32;20646;-57
2022/06/18 13:38:33;;;;;;;2.87;1.55;;;;;;;;;;4380064;32;20819;-57
2022/06/18 13:41:06;;;;;;;2.70;2.03;;;;;;;;;;4398867;32;20280;-56
2022/06/18 13:43:31;;;;;;;6.85;1.95;;;;;;;;;;4403831;32;20267;-56
2022/06/18 13:46:15;;;;;;;6.18;1.80;;;;;;;;;;4403285;32;20281;-56
2022/06/18 13:49:12;;;;;;;4.62;1.58;;;;;;;;;;4403395;32;20213;-56
2022/06/18 13:51:40;;;;;;;2.55;1.73;;;;;;;;;;4397118;32;20240;-57
2022/06/18 13:54:10;;;;;;;3.58;1.70;;;;;;;;;;4388376;32;20767;-57
2022/06/18 13:56:39;;;;;;;4.05;1.50;;;;;;;;;;4388136;32;20272;-57
2022/06/18 13:59:04;;;;;;;2.80;1.83;;;;;;;;;;4388047;32;20289;-57
2022/06/18 14:01:46;;;;;;;2.87;2.03;;;;;;;;;;4387634;32;20570;-57
2022/06/18 14:04:39;;;;;;;4.70;2.00;;;;;;;;;;4387787;32;20217;-57
2022/06/18 14:07:12;;;;;;;5.85;1.77;;;;;;;;;;4384524;32;20210;-56
2022/06/18 14:09:50;;;;;;;3.65;2.10;;;;;;;;;;4372319;32;20234;-57
2022/06/18 14:12:23;;;;;;;2.87;2.03;;;;;;;;;;4385871;32;20248;-57
2022/06/18 14:14:49;;;;;;;4.93;2.45;;;;;;;;;;4385827;32;20310;-58
2022/06/18 14:17:17;;;;;;;4.78;2.20;;;;;;;;;;4385453;32;20721;-56
2022/06/18 14:19:59;;;;;;;8.65;2.45;;;;;;;;;;4386983;32;20618;-57
2022/06/18 14:22:27;;;;;;;4.22;1.80;;;;;;;;;;4385519;32;20252;-57
2022/06/18 14:25:02;;;;;;;3.15;2.20;;;;;;;;;;4387427;32;20652;-57
2022/06/18 14:27:48;;;;;;;5.75;2.33;;;;;;;;;;4386772;32;20240;-57
2022/06/18 14:30:19;;;;;;;4.70;2.83;;;;;;;;;;4399917;32;20565;-57
2022/06/18 14:33:19;;;;;;;5.75;2.47;;;;;;;;;;4399340;32;20265;-58
2022/06/18 14:35:55;;;;;;;3.30;2.42;;;;;;;;;;4402702;32;20210;-58
2022/06/18 14:38:21;;;;;;;3.87;2.30;;;;;;;;;;4387933;32;20214;-59
2022/06/18 14:44:14;;;;;;;3.30;1.87;;;;;;;;;;4402634;32;20478;-58
2022/06/18 14:47:02;;;;;;;8.95;1.80;;;;;;;;;;4402333;32;20213;-58
2022/06/18 14:49:51;;;;;;;2.67;2.15;;;;;;;;;;4402554;32;20248;-57
2022/06/18 14:52:41;;;;;;;3.67;2.42;;;;;;;;;;4402535;32;20317;-57
2022/06/18 14:55:12;;;;;;;7.15;2.42;;;;;;;;;;4402751;32;20655;-58
2022/06/18 14:58:15;;;;;;;4.25;2.50;;;;;;;;;;4402625;32;20244;-58
2022/06/18 15:01:18;;;;;;;11.68;3.15;;;;;;;;;;4402665;32;20233;-57
2022/06/18 15:03:53;;;;;;;4.28;2.97;;;;;;;;;;4402265;32;20763;-58
2022/06/18 15:06:19;;;;;;;4.45;2.78;;;;;;;;;;4402725;32;20638;-59
2022/06/18 15:08:54;;;;;;;6.00;2.28;;;;;;;;;;4402491;32;20428;-58
2022/06/18 15:11:20;;;;;;;2.90;2.30;;;;;;;;;;4401333;32;20308;-59
2022/06/18 15:13:46;;;;;;;2.87;2.25;;;;;;;;;;4402291;32;20284;-58
2022/06/18 15:16:38;;;;;;;6.75;3.53;;;;;;;;;;4402281;32;20224;-57
2022/06/18 15:24:23;;;;;;;3.53;2.12;;;;;;;;;;4402406;32;20263;-57
2022/06/18 15:26:52;;;;;;;2.87;2.20;;;;;;;;;;4401660;32;20229;-56
2022/06/18 15:29:22;;;;;;;3.37;2.28;;;;;;;;;;4395349;32;20622;-57
2022/06/18 15:32:00;;;;;;;5.35;2.47;;;;;;;;;;4401872;32;20550;-57
2022/06/18 15:34:29;;;;;;;3.83;1.70;;;;;;;;;;4400991;32;20603;-57
2022/06/18 15:37:17;;;;;;;4.70;2.20;;;;;;;;;;4396137;32;20240;-58
2022/06/18 15:40:00;;;;;;;2.37;2.17;;;;;;;;;;4375910;32;20673;-58
2022/06/18 15:42:46;;;;;;;6.47;2.35;;;;;;;;;;4388077;32;20555;-57
2022/06/18 15:45:24;;;;;;;3.55;2.65;;;;;;;;;;4390715;32;20210;-57
2022/06/18 15:47:53;;;;;;;2.72;2.37;;;;;;;;;;4389328;32;20218;-57